createdAt,value
2019-01-08T00:02:02.718Z,84.90
2019-01-08T00:04:32.255Z,85.00
2019-01-08T00:07:01.628Z,85.00
2019-01-08T00:09:30.911Z,85.30
2019-01-08T00:12:00.214Z,85.30
2019-01-08T00:14:29.515Z,85.40
2019-01-08T00:16:58.816Z,85.20
2019-01-08T00:19:28.099Z,85.10
2019-01-08T00:21:57.421Z,84.30
2019-01-08T00:24:26.964Z,84.60
2019-01-08T00:26:56.267Z,84.20
2019-01-08T00:29:25.551Z,84.00
2019-01-08T00:31:54.855Z,83.70
2019-01-08T00:34:24.146Z,83.80
2019-01-08T00:36:53.443Z,83.60
2019-01-08T00:39:22.742Z,83.60
2019-01-08T00:41:52.377Z,84.10
2019-01-08T00:44:21.663Z,84.10
2019-01-08T00:46:50.966Z,84.40
2019-01-08T00:49:20.588Z,84.10
2019-01-08T00:51:49.887Z,84.50
2019-01-08T00:54:19.499Z,84.00
2019-01-08T00:56:49.107Z,83.20
2019-01-08T00:59:18.398Z,82.90
2019-01-08T01:01:47.699Z,82.60
2019-01-08T01:04:16.998Z,82.40
2019-01-08T01:06:46.612Z,82.20
2019-01-08T01:09:15.911Z,82.00
2019-01-08T01:11:45.523Z,82.40
2019-01-08T01:14:14.912Z,81.70
2019-01-08T01:16:44.195Z,82.20
2019-01-08T01:19:13.494Z,82.50
2019-01-08T01:21:42.799Z,82.40
2019-01-08T01:24:12.079Z,82.90
2019-01-08T01:26:41.367Z,82.80
2019-01-08T01:29:10.661Z,83.10
2019-01-08T01:31:40.236Z,83.60
2019-01-08T01:34:09.512Z,83.00
2019-01-08T01:36:39.143Z,83.10
2019-01-08T01:39:08.418Z,83.30
2019-01-08T01:41:37.711Z,83.60
2019-01-08T01:44:06.987Z,83.60
2019-01-08T01:46:36.282Z,83.80
2019-01-08T01:49:05.575Z,84.50
2019-01-08T01:51:34.857Z,84.40
2019-01-08T01:54:04.140Z,84.70
2019-01-08T01:56:33.426Z,85.00
2019-01-08T01:59:08.331Z,85.10
2019-01-08T02:01:33.695Z,85.30
2019-01-08T02:04:03.291Z,85.30
2019-01-08T02:06:32.903Z,85.30
2019-01-08T02:09:02.260Z,84.70
2019-01-08T02:11:31.619Z,84.70
2019-01-08T02:14:00.896Z,84.50
2019-01-08T02:16:30.187Z,84.50
2019-01-08T02:18:59.485Z,84.40
2019-01-08T02:21:28.764Z,84.30
2019-01-08T02:23:58.311Z,84.40
2019-01-08T02:26:27.582Z,84.30
2019-01-08T02:28:56.875Z,84.40
2019-01-08T02:31:26.418Z,84.40
2019-01-08T02:33:55.709Z,84.70
2019-01-08T02:36:24.988Z,84.90
2019-01-08T02:38:54.289Z,84.80
2019-01-08T02:41:23.905Z,84.90
2019-01-08T02:43:53.485Z,84.90
2019-01-08T02:46:22.819Z,85.20
2019-01-08T02:48:52.095Z,86.00
2019-01-08T02:51:21.381Z,85.50
2019-01-08T02:53:50.671Z,86.10
2019-01-08T02:56:20.251Z,86.00
2019-01-08T02:58:49.534Z,86.00
2019-01-08T03:01:19.051Z,85.80
2019-01-08T03:03:48.354Z,86.20
2019-01-08T03:06:17.956Z,86.10
2019-01-08T03:08:47.230Z,86.50
2019-01-08T03:11:16.530Z,87.00
2019-01-08T03:13:45.798Z,87.40
2019-01-08T03:16:15.083Z,87.60
2019-01-08T03:18:44.379Z,87.50
2019-01-08T03:21:13.666Z,87.90
2019-01-08T03:23:42.948Z,87.70
2019-01-08T03:26:12.571Z,87.20
2019-01-08T03:28:41.852Z,87.20
2019-01-08T03:31:11.135Z,86.50
2019-01-08T03:33:40.419Z,85.50
2019-01-08T03:36:09.978Z,84.30
2019-01-08T03:38:39.579Z,83.80
2019-01-08T03:41:08.874Z,84.00
2019-01-08T03:43:38.391Z,84.20
2019-01-08T03:46:07.687Z,84.60
2019-01-08T03:48:36.985Z,84.30
2019-01-08T03:51:06.595Z,83.90
2019-01-08T03:53:35.869Z,84.00
2019-01-08T03:56:05.162Z,84.00
2019-01-08T03:58:34.443Z,83.50
2019-01-08T04:01:03.739Z,83.20
2019-01-08T04:03:33.038Z,83.50
2019-01-08T04:06:02.313Z,82.20
2019-01-08T04:08:31.590Z,81.50
2019-01-08T04:11:00.888Z,80.70
2019-01-08T04:13:30.146Z,80.00
2019-01-08T04:16:00.360Z,78.50
2019-01-08T04:18:29.703Z,78.20
2019-01-08T04:20:58.991Z,77.00
2019-01-08T04:23:29.536Z,74.70
2019-01-08T04:25:58.891Z,72.80
2019-01-08T04:28:28.188Z,71.50
2019-01-08T04:30:57.473Z,68.60
2019-01-08T04:33:26.763Z,69.00
2019-01-08T04:35:56.037Z,64.40
2019-01-08T04:38:25.340Z,64.00
2019-01-08T04:40:54.611Z,64.90
2019-01-08T04:43:24.174Z,63.90
2019-01-08T04:45:53.446Z,64.30
2019-01-08T04:48:23.114Z,61.50
2019-01-08T04:50:52.395Z,61.70
2019-01-08T04:53:21.696Z,62.50
2019-01-08T04:55:51.022Z,61.50
2019-01-08T04:58:20.388Z,62.30
2019-01-08T05:00:49.724Z,62.20
2019-01-08T05:03:18.994Z,61.10
2019-01-08T05:05:48.599Z,61.00
2019-01-08T05:08:17.894Z,60.70
2019-01-08T05:10:47.182Z,62.20
2019-01-08T05:13:16.480Z,61.50
2019-01-08T05:15:45.771Z,61.30
2019-01-08T05:18:15.043Z,62.10
2019-01-08T05:20:44.331Z,62.60
2019-01-08T05:23:13.620Z,61.10
2019-01-08T05:25:42.906Z,61.10
2019-01-08T05:28:12.187Z,60.40
2019-01-08T05:30:41.474Z,59.50
2019-01-08T05:33:11.098Z,59.60
2019-01-08T05:35:40.442Z,58.40
2019-01-08T05:38:09.769Z,60.30
2019-01-08T05:40:39.047Z,60.00
2019-01-08T05:43:08.346Z,57.30
2019-01-08T05:45:37.622Z,55.80
2019-01-08T05:48:06.898Z,55.00
2019-01-08T05:50:36.195Z,55.90
2019-01-08T05:53:05.470Z,55.20
2019-01-08T05:55:34.769Z,55.40
2019-01-08T05:58:04.038Z,55.30
2019-01-08T06:00:33.334Z,53.80
2019-01-08T06:03:02.615Z,55.00
2019-01-08T06:05:32.215Z,53.60
2019-01-08T06:08:01.499Z,54.60
2019-01-08T06:10:30.795Z,54.60
2019-01-08T06:13:00.427Z,55.40
2019-01-08T06:15:29.711Z,54.00
2019-01-08T06:17:59.059Z,54.00
2019-01-08T06:20:28.339Z,52.30
2019-01-08T06:22:57.614Z,52.60
2019-01-08T06:25:27.235Z,53.30
2019-01-08T06:27:56.502Z,52.90
2019-01-08T06:30:25.803Z,54.10
2019-01-08T06:32:55.072Z,54.60
2019-01-08T06:35:24.371Z,53.70
2019-01-08T06:37:53.943Z,53.50
2019-01-08T06:40:23.248Z,55.50
2019-01-08T06:42:52.518Z,55.10
2019-01-08T06:45:22.039Z,54.10
2019-01-08T06:47:51.338Z,55.50
2019-01-08T06:50:20.623Z,55.00
2019-01-08T06:52:49.915Z,55.90
2019-01-08T06:55:19.191Z,56.50
2019-01-08T06:57:48.796Z,56.40
2019-01-08T07:00:18.066Z,56.50
2019-01-08T07:02:47.366Z,56.60
2019-01-08T07:05:16.648Z,57.60
2019-01-08T07:07:45.930Z,57.10
2019-01-08T07:10:15.476Z,57.70
2019-01-08T07:12:45.077Z,57.40
2019-01-08T07:15:14.352Z,57.30
2019-01-08T07:17:43.633Z,57.10
2019-01-08T07:20:13.179Z,57.30
2019-01-08T07:22:42.787Z,57.10
2019-01-08T07:25:12.066Z,56.40
2019-01-08T07:27:41.402Z,56.40
2019-01-08T07:30:10.719Z,55.70
2019-01-08T07:32:40.008Z,55.10
2019-01-08T07:35:09.307Z,55.50
2019-01-08T07:37:38.603Z,55.40
2019-01-08T07:40:08.307Z,56.40
2019-01-08T07:42:37.578Z,56.20
2019-01-08T07:45:06.863Z,56.10
2019-01-08T07:47:36.139Z,55.40
2019-01-08T07:50:08.290Z,55.20
2019-01-08T07:52:37.646Z,55.10
2019-01-08T07:55:06.943Z,54.90
2019-01-08T07:57:36.220Z,54.60
2019-01-08T08:00:07.263Z,55.30
2019-01-08T08:02:36.822Z,55.10
2019-01-08T08:05:06.179Z,54.20
2019-01-08T08:07:35.463Z,54.60
2019-01-08T08:10:07.179Z,55.20
2019-01-08T08:12:36.472Z,55.20
2019-01-08T08:15:07.019Z,53.60
2019-01-08T08:17:36.291Z,54.10
2019-01-08T08:20:07.403Z,53.10
2019-01-08T08:22:36.695Z,53.40
2019-01-08T08:25:06.623Z,52.10
2019-01-08T08:27:36.187Z,52.20
2019-01-08T08:30:08.039Z,52.60
2019-01-08T08:32:37.310Z,51.40
2019-01-08T08:35:08.697Z,52.20
2019-01-08T08:37:37.755Z,52.30
2019-01-08T08:40:07.975Z,51.60
2019-01-08T08:42:37.250Z,51.80
2019-01-08T08:45:08.518Z,51.50
2019-01-08T08:47:37.751Z,52.80
2019-01-08T08:50:07.223Z,51.00
2019-01-08T08:52:36.774Z,53.50
2019-01-08T08:55:06.470Z,53.40
2019-01-08T08:57:35.742Z,52.20
2019-01-08T09:00:07.183Z,54.90
2019-01-08T09:02:36.456Z,54.50
2019-01-08T09:05:05.811Z,52.50
2019-01-08T09:07:35.334Z,53.80
2019-01-08T09:10:05.461Z,53.30
2019-01-08T09:12:34.754Z,54.20
2019-01-08T09:15:04.190Z,55.00
2019-01-08T09:17:33.488Z,55.30
2019-01-08T09:20:02.763Z,54.80
2019-01-08T09:22:32.050Z,56.40
2019-01-08T09:25:01.337Z,58.20
2019-01-08T09:27:30.625Z,56.70
2019-01-08T09:29:59.911Z,56.60
2019-01-08T09:32:29.203Z,57.30
2019-01-08T09:34:58.763Z,58.30
2019-01-08T09:37:28.043Z,58.00
2019-01-08T09:39:57.339Z,58.30
2019-01-08T09:42:26.872Z,59.10
2019-01-08T09:44:56.479Z,57.10
2019-01-08T09:47:25.773Z,57.90
2019-01-08T09:49:55.051Z,58.10
2019-01-08T09:52:24.593Z,58.80
2019-01-08T09:54:53.882Z,57.00
2019-01-08T09:57:23.155Z,57.60
2019-01-08T09:59:52.690Z,58.50
2019-01-08T10:02:21.971Z,58.10
2019-01-08T10:04:51.266Z,58.10
2019-01-08T10:07:20.543Z,58.10
2019-01-08T10:09:49.832Z,59.60
2019-01-08T10:12:19.403Z,58.10
2019-01-08T10:14:48.707Z,57.00
2019-01-08T10:17:18.307Z,58.50
2019-01-08T10:19:47.588Z,56.20
2019-01-08T10:22:16.879Z,58.10
2019-01-08T10:24:46.415Z,57.10
2019-01-08T10:27:16.023Z,57.90
2019-01-08T10:29:45.631Z,57.80
2019-01-08T10:32:14.919Z,58.00
2019-01-08T10:34:44.191Z,58.90
2019-01-08T10:37:13.479Z,56.50
2019-01-08T10:39:43.042Z,54.70
2019-01-08T10:42:12.331Z,55.80
2019-01-08T10:44:41.599Z,56.20
2019-01-08T10:47:10.891Z,56.60
2019-01-08T10:49:40.182Z,58.70
2019-01-08T10:52:09.455Z,58.90
2019-01-08T10:54:38.755Z,61.20
2019-01-08T10:57:08.041Z,59.80
2019-01-08T10:59:37.323Z,60.10
2019-01-08T11:02:06.953Z,62.20
2019-01-08T11:04:36.226Z,62.80
2019-01-08T11:07:05.514Z,63.40
2019-01-08T11:09:34.811Z,61.50
2019-01-08T11:12:04.086Z,62.80
2019-01-08T11:14:33.374Z,63.30
2019-01-08T11:17:02.966Z,63.10
2019-01-08T11:19:32.240Z,63.10
2019-01-08T11:22:01.527Z,62.20
2019-01-08T11:24:30.807Z,62.60
2019-01-08T11:27:00.098Z,62.20
2019-01-08T11:29:29.374Z,62.90
2019-01-08T11:31:58.666Z,62.80
2019-01-08T11:34:27.947Z,63.20
2019-01-08T11:36:57.310Z,62.30
2019-01-08T11:39:26.607Z,61.60
2019-01-08T11:41:55.908Z,63.90
2019-01-08T11:44:25.179Z,63.20
2019-01-08T11:46:54.783Z,62.50
2019-01-08T11:49:24.061Z,63.10
2019-01-08T11:51:53.360Z,65.60
2019-01-08T11:54:22.635Z,65.40
2019-01-08T11:56:51.919Z,65.70
2019-01-08T11:59:21.207Z,66.30
2019-01-08T12:01:57.172Z,66.10
2019-01-08T12:04:22.029Z,67.70
2019-01-08T12:06:51.324Z,67.60
2019-01-08T12:09:20.601Z,69.80
2019-01-08T12:11:49.886Z,69.60
2019-01-08T12:14:19.163Z,70.00
2019-01-08T12:16:48.455Z,69.50
2019-01-08T12:19:17.749Z,70.90
2019-01-08T12:21:47.045Z,70.20
2019-01-08T12:24:16.644Z,70.80
2019-01-08T12:26:45.934Z,70.30
2019-01-08T12:29:15.228Z,69.20
2019-01-08T12:31:44.525Z,70.20
2019-01-08T12:34:13.790Z,69.60
2019-01-08T12:36:43.347Z,70.20
2019-01-08T12:39:12.622Z,68.50
2019-01-08T12:41:41.924Z,68.80
2019-01-08T12:44:11.200Z,69.60
2019-01-08T12:46:40.487Z,68.20
2019-01-08T12:49:09.767Z,67.40
2019-01-08T12:51:39.054Z,66.60
2019-01-08T12:54:08.334Z,66.40
2019-01-08T12:56:37.622Z,64.00
2019-01-08T12:59:06.904Z,63.30
2019-01-08T13:01:36.191Z,65.80
2019-01-08T13:04:05.479Z,65.50
2019-01-08T13:06:35.060Z,66.30
2019-01-08T13:09:06.642Z,64.60
2019-01-08T13:11:36.219Z,65.20
2019-01-08T13:14:05.515Z,65.00
2019-01-08T13:16:34.791Z,66.70
2019-01-08T13:19:04.091Z,65.80
2019-01-08T13:21:33.627Z,66.10
2019-01-08T13:24:03.235Z,64.90
2019-01-08T13:26:32.523Z,65.40
2019-01-08T13:29:01.812Z,65.00
2019-01-08T13:31:31.444Z,64.40
2019-01-08T13:34:00.712Z,61.60
2019-01-08T13:36:29.999Z,57.80
2019-01-08T13:38:59.276Z,57.40
2019-01-08T13:41:28.568Z,57.20
2019-01-08T13:43:57.839Z,57.80
2019-01-08T13:46:27.127Z,55.00
2019-01-08T13:48:56.398Z,57.30
2019-01-08T13:51:25.687Z,58.10
2019-01-08T13:53:54.983Z,59.10
2019-01-08T13:56:24.266Z,56.80
2019-01-08T13:58:53.568Z,57.70
2019-01-08T14:01:22.863Z,61.20
2019-01-08T14:03:52.143Z,59.20
2019-01-08T14:06:21.440Z,58.50
2019-01-08T14:08:50.711Z,60.00
2019-01-08T14:11:20.003Z,57.80
2019-01-08T14:13:49.289Z,57.70
2019-01-08T14:16:18.580Z,61.30
2019-01-08T14:18:48.164Z,61.40
2019-01-08T14:21:17.450Z,61.40
2019-01-08T14:23:46.723Z,62.60
2019-01-08T14:26:16.011Z,60.80
2019-01-08T14:28:45.568Z,60.90
2019-01-08T14:31:14.854Z,62.60
2019-01-08T14:33:44.127Z,63.70
2019-01-08T14:36:13.419Z,64.20
2019-01-08T14:38:42.709Z,64.00
2019-01-08T14:41:12.003Z,62.70
2019-01-08T14:43:41.274Z,63.70
2019-01-08T14:46:10.579Z,60.50
2019-01-08T14:48:39.931Z,60.70
2019-01-08T14:51:09.584Z,59.10
2019-01-08T14:53:38.859Z,60.30
2019-01-08T14:56:08.160Z,60.50
2019-01-08T14:58:37.688Z,59.80
2019-01-08T15:01:06.984Z,61.80
2019-01-08T15:03:36.271Z,62.60
2019-01-08T15:06:05.565Z,63.30
2019-01-08T15:08:34.835Z,63.30
2019-01-08T15:11:04.128Z,64.40
2019-01-08T15:13:33.423Z,64.70
2019-01-08T15:16:02.704Z,63.20
2019-01-08T15:18:32.003Z,63.50
2019-01-08T15:21:01.276Z,63.80
2019-01-08T15:23:30.894Z,63.00
2019-01-08T15:26:00.506Z,64.20
2019-01-08T15:28:30.167Z,64.10
2019-01-08T15:30:59.495Z,63.90
2019-01-08T15:33:28.763Z,62.30
2019-01-08T15:35:58.050Z,62.60
2019-01-08T15:38:27.411Z,61.30
2019-01-08T15:40:56.698Z,60.10
2019-01-08T15:43:25.991Z,60.90
2019-01-08T15:45:55.262Z,60.90
2019-01-08T15:48:24.556Z,60.30
2019-01-08T15:50:54.127Z,58.10
2019-01-08T15:53:23.398Z,58.70
2019-01-08T15:55:52.694Z,59.10
2019-01-08T15:58:21.962Z,59.60
2019-01-08T16:00:51.247Z,59.10
2019-01-08T16:03:20.835Z,57.50
2019-01-08T16:05:50.139Z,57.40
2019-01-08T16:08:19.647Z,55.90
2019-01-08T16:10:49.184Z,54.80
2019-01-08T16:13:18.451Z,53.00
2019-01-08T16:15:47.742Z,53.30
2019-01-08T16:18:17.016Z,49.40
2019-01-08T16:20:46.302Z,48.90
2019-01-08T16:23:15.574Z,48.10
2019-01-08T16:25:44.867Z,45.30
2019-01-08T16:28:14.147Z,48.10
2019-01-08T16:30:43.755Z,49.30
2019-01-08T16:33:16.196Z,49.90
2019-01-08T16:35:44.303Z,50.50
2019-01-08T16:38:13.590Z,54.10
2019-01-08T16:40:42.867Z,52.00
2019-01-08T16:43:12.161Z,51.90
2019-01-08T16:45:41.706Z,53.20
2019-01-08T16:48:11.003Z,52.10
2019-01-08T16:50:40.276Z,52.20
2019-01-08T16:53:09.576Z,52.10
2019-01-08T16:55:38.851Z,51.50
2019-01-08T16:58:08.146Z,50.10
2019-01-08T17:00:37.424Z,50.40
2019-01-08T17:03:06.711Z,52.00
2019-01-08T17:05:36.331Z,53.20
2019-01-08T17:08:05.602Z,53.80
2019-01-08T17:10:34.961Z,50.10
2019-01-08T17:13:04.535Z,49.20
2019-01-08T17:15:33.831Z,47.10
2019-01-08T17:18:03.098Z,47.70
2019-01-08T17:20:32.479Z,48.10
2019-01-08T17:23:01.764Z,48.80
2019-01-08T17:25:31.047Z,47.50
2019-01-08T17:28:00.388Z,47.10
2019-01-08T17:30:29.743Z,47.10
2019-01-08T17:32:59.353Z,47.70
2019-01-08T17:35:28.642Z,49.10
2019-01-08T17:37:58.151Z,50.90
2019-01-08T17:40:27.455Z,52.40
2019-01-08T17:42:56.723Z,52.30
2019-01-08T17:45:26.011Z,51.00
2019-01-08T17:47:55.282Z,50.40
2019-01-08T17:50:24.566Z,48.00
2019-01-08T17:52:53.869Z,48.00
2019-01-08T17:55:23.146Z,46.60
2019-01-08T17:57:55.835Z,47.30
2019-01-08T18:00:25.110Z,45.80
2019-01-08T18:02:54.402Z,45.20
2019-01-08T18:05:23.675Z,46.80
2019-01-08T18:07:52.973Z,47.70
2019-01-08T18:10:22.543Z,46.70
2019-01-08T18:12:51.820Z,47.50
2019-01-08T18:15:21.107Z,48.00
2019-01-08T18:17:50.383Z,47.50
2019-01-08T18:20:19.675Z,46.80
2019-01-08T18:22:48.972Z,45.90
2019-01-08T18:25:18.262Z,46.00
2019-01-08T18:27:47.551Z,45.70
2019-01-08T18:30:16.854Z,45.60
2019-01-08T18:32:46.122Z,45.20
2019-01-08T18:35:15.414Z,45.70
2019-01-08T18:37:44.698Z,46.50
2019-01-08T18:40:14.307Z,46.40
2019-01-08T18:42:43.834Z,46.50
2019-01-08T18:45:13.118Z,46.20
2019-01-08T18:47:42.666Z,45.70
2019-01-08T18:50:11.942Z,45.10
2019-01-08T18:52:41.236Z,43.70
2019-01-08T18:55:10.519Z,44.30
2019-01-08T18:57:39.827Z,43.60
2019-01-08T19:00:10.195Z,43.50
2019-01-08T19:02:39.486Z,42.10
2019-01-08T19:05:09.109Z,43.00
2019-01-08T19:07:38.436Z,43.10
2019-01-08T19:10:13.610Z,43.60
2019-01-08T19:12:43.352Z,41.80
2019-01-08T19:15:12.871Z,42.80
2019-01-08T19:17:42.151Z,41.10
2019-01-08T19:20:11.464Z,40.00
2019-01-08T19:22:40.738Z,40.00
2019-01-08T19:25:10.037Z,38.70
2019-01-08T19:27:39.303Z,39.90
2019-01-08T19:30:10.198Z,37.60
2019-01-08T19:32:39.471Z,37.90
2019-01-08T19:35:09.111Z,38.40
2019-01-08T19:37:38.395Z,39.30
2019-01-08T19:40:08.739Z,38.40
2019-01-08T19:42:38.026Z,39.10
2019-01-08T19:45:08.027Z,39.90
2019-01-08T19:47:37.563Z,40.90
2019-01-08T19:50:08.491Z,41.90
2019-01-08T19:52:37.761Z,43.60
2019-01-08T19:55:07.046Z,44.40
2019-01-08T19:57:36.335Z,45.30
2019-01-08T20:00:08.944Z,46.10
2019-01-08T20:02:38.479Z,47.00
2019-01-08T20:05:08.086Z,49.30
2019-01-08T20:07:37.379Z,50.30
2019-01-08T20:10:06.935Z,51.80
2019-01-08T20:12:36.186Z,53.20
2019-01-08T20:15:07.695Z,53.00
2019-01-08T20:17:37.256Z,53.90
2019-01-08T20:20:07.297Z,54.00
2019-01-08T20:22:36.562Z,54.90
2019-01-08T20:25:06.282Z,51.70
2019-01-08T20:27:35.567Z,51.80
2019-01-08T20:30:07.142Z,50.70
2019-01-08T20:32:36.410Z,49.90
2019-01-08T20:35:05.843Z,48.70
2019-01-08T20:37:35.172Z,48.80
2019-01-08T20:40:04.874Z,48.80
2019-01-08T20:42:34.464Z,49.80
2019-01-08T20:45:04.002Z,49.70
2019-01-08T20:47:33.623Z,49.60
2019-01-08T20:50:03.058Z,49.80
2019-01-08T20:52:32.367Z,50.40
2019-01-08T20:55:01.660Z,49.30
2019-01-08T20:57:30.943Z,48.40
2019-01-08T21:00:00.232Z,48.80
2019-01-08T21:02:29.510Z,47.70
2019-01-08T21:04:58.817Z,47.10
2019-01-08T21:07:28.391Z,46.00
2019-01-08T21:09:57.726Z,45.40
2019-01-08T21:12:27.003Z,46.90
2019-01-08T21:14:56.294Z,47.50
2019-01-08T21:17:25.597Z,46.40
2019-01-08T21:19:54.871Z,46.60
2019-01-08T21:22:24.167Z,45.90
2019-01-08T21:24:53.442Z,46.30
2019-01-08T21:27:23.830Z,45.90
2019-01-08T21:29:53.526Z,46.00
2019-01-08T21:32:22.814Z,43.70
2019-01-08T21:34:52.442Z,43.70
2019-01-08T21:37:21.719Z,41.40
2019-01-08T21:39:51.243Z,57.60
2019-01-08T21:42:20.509Z,56.60
2019-01-08T21:44:50.062Z,55.20
2019-01-08T21:47:19.340Z,40.40
2019-01-08T21:49:48.643Z,37.00
2019-01-08T21:52:17.942Z,37.30
2019-01-08T21:54:47.285Z,36.40
2019-01-08T21:57:16.586Z,36.90
2019-01-08T21:59:46.627Z,37.60
2019-01-08T22:02:15.912Z,37.60
2019-01-08T22:04:52.731Z,38.40
2019-01-08T22:07:17.627Z,39.10
2019-01-08T22:09:46.921Z,39.50
2019-01-08T22:12:16.196Z,40.50
2019-01-08T22:14:45.479Z,41.60
2019-01-08T22:17:14.775Z,42.80
2019-01-08T22:19:44.359Z,44.20
2019-01-08T22:22:13.964Z,46.10
2019-01-08T22:24:43.270Z,47.60
2019-01-08T22:27:12.530Z,48.40
2019-01-08T22:29:41.905Z,48.30
2019-01-08T22:32:11.175Z,49.90
2019-01-08T22:34:40.776Z,50.10
2019-01-08T22:37:10.206Z,50.10
2019-01-08T22:39:39.488Z,48.80
2019-01-08T22:42:09.038Z,48.80
2019-01-08T22:44:38.699Z,47.80
2019-01-08T22:47:07.999Z,46.20
2019-01-08T22:49:37.290Z,44.40
2019-01-08T22:52:06.810Z,44.60
2019-01-08T22:54:36.106Z,44.50
2019-01-08T22:57:06.227Z,44.00
2019-01-08T22:59:35.521Z,43.90
2019-01-08T23:02:05.263Z,44.30
2019-01-08T23:04:34.623Z,45.50
2019-01-08T23:07:04.139Z,46.30
2019-01-08T23:09:33.435Z,46.60
2019-01-08T23:12:02.707Z,47.30
2019-01-08T23:14:31.999Z,48.60
2019-01-08T23:17:01.266Z,48.30
2019-01-08T23:19:30.555Z,49.10
2019-01-08T23:21:59.841Z,50.10
2019-01-08T23:24:29.455Z,50.40
2019-01-08T23:26:58.747Z,51.00
2019-01-08T23:29:28.003Z,50.70
2019-01-08T23:31:57.558Z,50.20
2019-01-08T23:34:26.919Z,49.00
2019-01-08T23:36:56.297Z,47.10
2019-01-08T23:39:25.586Z,45.40
2019-01-08T23:41:54.846Z,45.50
2019-01-08T23:44:24.131Z,46.10
2019-01-08T23:46:53.430Z,45.60
2019-01-08T23:49:22.707Z,44.80
2019-01-08T23:51:55.078Z,44.90
2019-01-08T23:54:26.148Z,44.60
2019-01-08T23:56:56.371Z,45.30
2019-01-08T23:59:25.662Z,44.80
